This is the latest recevied weather packets stored in our database for station/object KC1TLF-15. If no packets are shown the sender has not sent any weather packets the latest 1 day(s).
| Time | Temp. | Humidity | Pressure | Rain* | Wind** | Luminosity | Snow |
|---|---|---|---|---|---|---|---|
| 1778093470 | 18.33° C | 85% | 1014.7 hPa | 1.27 mm | 0 m/s | - | - |
| 1778089871 | 21.67° C | 62% | 1015.2 hPa | 0 mm | 0.89 m/s, 286° | - | - |
| 1778089270 | 22.22° C | 58% | 1015 hPa | 0 mm | 0.89 m/s, 264° | - | - |
| 1778087471 | 23.89° C | 54% | 1015 hPa | 0 mm | 0 m/s | 202 W/m² | - |
| 1778086270 | 23.33° C | 58% | 1015.3 hPa | 0 mm | 1.79 m/s, 290° | 288 W/m² | - |
| 1778084471 | 22.22° C | 60% | 1015.8 hPa | 0 mm | 0.89 m/s, 314° | 154 W/m² | - |
| 1778083270 | 22.22° C | 59% | 1016.2 hPa | 0 mm | 0 m/s | 158 W/m² | - |
| 1778082070 | 21.67° C | 62% | 1016.4 hPa | 0 mm | 0.45 m/s, 296° | 155 W/m² | - |
| 1778081470 | 21.67° C | 63% | 1016.4 hPa | 0 mm | 0 m/s | 142 W/m² | - |
| 1778080870 | 21.67° C | 63% | 1016.7 hPa | 0 mm | 0.89 m/s, 145° | 137 W/m² | - |
| 1778080271 | 21.67° C | 63% | 1017 hPa | 0 mm | 0.45 m/s, 285° | 206 W/m² | - |
| 1778079670 | 21.67° C | 62% | 1017.1 hPa | 0 mm | 1.79 m/s, 276° | 194 W/m² | - |
| 1778078470 | 21.67° C | 63% | 1017.2 hPa | 0 mm | 0 m/s | 269 W/m² | - |
| 1778077271 | 22.22° C | 62% | 1017 hPa | 0 mm | 0 m/s | 267 W/m² | - |
| 1778076670 | 22.22° C | 62% | 1016.5 hPa | 0 mm | 0.45 m/s, 44° | 271 W/m² | - |
| 1778073071 | 19.44° C | 71% | 1017.5 hPa | 0 mm | 0.89 m/s, 296° | 216 W/m² | - |
| 1778072470 | 19.44° C | 72% | 1017.5 hPa | 0 mm | 0 m/s | 143 W/m² | - |
| 1778071871 | 19.44° C | 73% | 1017.5 hPa | 0 mm | 0.45 m/s, 177° | 183 W/m² | - |
| 1778071270 | 19.44° C | 72% | 1017.4 hPa | 0 mm | 0.45 m/s, 311° | 162 W/m² | - |
| 1778069470 | 17.78° C | 76% | 1017.7 hPa | 0 mm | 0.45 m/s, 321° | - | - |
| 1778068271 | 17.22° C | 77% | 1017.7 hPa | 0 mm | 0 m/s | 235 W/m² | - |
| 1778067070 | 16.67° C | 79% | 1017.8 hPa | 0 mm | 0 m/s | - | - |
| 1778065270 | 16.67° C | 79% | 1017.7 hPa | 0 mm | 0.45 m/s, 12° | - | - |
| 1778063471 | 15° C | 84% | 1017.9 hPa | 0 mm | 0 m/s | - | - |
| 1778062268 | 15° C | 84% | 1017.8 hPa | 0 mm | 0 m/s | - | - |
* Rain latest hour (hover to see other rain measurements)
** Current wind speed in m/s (hover to see current wind gust speed)